Time;durP1;ratioP1;P1;durP2;ratioP2;P2;SDS_P1;SDS_P2;PMS_P1;PMS_P2;Temp;Humidity;BMP_temperature;BMP_pressure;BME280_temperature;BME280_humidity;BME280_pressure;Samples;Min_cycle;Max_cycle;Signal;HPM_P1;HPM_P2
2022/03/08 00:00:22;;;;;;;;;;;;;;;;;;1035154;28;960;-37
2022/03/08 00:00:53;;;;;;;;;;;;;;;;;;1035707;28;981;-37
2022/03/08 00:01:23;;;;;;;;;;;;;;;;;;1035444;28;1469;-34
2022/03/08 00:01:54;;;;;;;;;;;;;;;;;;1035487;28;888;-37
2022/03/08 00:02:24;;;;;;;;;;;;;;;;;;1034773;28;653;-35
2022/03/08 00:02:55;;;;;;;;;;;;;;;;;;1035125;28;925;-35
2022/03/08 00:03:25;;;;;;;;;;;;;;;;;;1035446;28;804;-38
2022/03/08 00:03:56;;;;;;;;;;;;;;;;;;1035136;28;1523;-35
2022/03/08 00:04:27;;;;;;;;;;;;;;;;;;1035336;28;858;-36
2022/03/08 00:04:58;;;;;;;;;;;;;;;;;;1035518;28;1024;-37
2022/03/08 00:05:29;;;;;;;;;;;;;;;;;;1035695;28;870;-35
2022/03/08 00:05:59;;;;;;;;;;;;;;;;;;1035125;28;870;-35
2022/03/08 00:06:30;;;;;;;;;;;;;;;;;;1035275;28;985;-35
2022/03/08 00:07:00;;;;;;;;;;;;;;;;;;1035564;28;921;-37
2022/03/08 00:07:31;;;;;;;;;;;;;;;;;;1035029;28;854;-37
2022/03/08 00:08:03;;;;;;;;;;;;;;;;;;1035400;28;886;-35
2022/03/08 00:08:34;;;;;;;;;;;;;;;;;;1035674;28;894;-37
2022/03/08 00:09:04;;;;;;;;;;;;;;;;;;1035288;28;863;-35
2022/03/08 00:09:34;;;;;;;;;;;;;;;;;;1034957;28;1026;-38
2022/03/08 00:10:05;;;;;;;;;;;;;;;;;;1035670;28;826;-37
2022/03/08 00:10:36;;;;;;;;;;;;;;;;;;1035389;28;854;-37
2022/03/08 00:11:06;;;;;;;;;;;;;;;;;;1028948;28;1205;-38
2022/03/08 00:11:37;;;;;;;;;;;;;;;;;;1027225;28;875;-36
2022/03/08 00:12:07;;;;;;;;;;;;;;;;;;1027165;28;958;-35
2022/03/08 00:12:38;;;;;;;;;;;;;;;;;;1027138;28;827;-36
2022/03/08 00:13:09;;;;;;;;;;;;;;;;;;1031447;28;922;-36
2022/03/08 00:13:39;;;;;;;;;;;;;;;;;;1030896;28;962;-36
2022/03/08 00:14:09;;;;;;;;;;;;;;;;;;1031540;28;867;-37
2022/03/08 00:14:40;;;;;;;;;;;;;;;;;;1031546;28;883;-37
2022/03/08 00:15:11;;;;;;;;;;;;;;;;;;1027125;28;884;-35
2022/03/08 00:15:41;;;;;;;;;;;;;;;;;;1027318;28;1387;-37
2022/03/08 00:16:12;;;;;;;;;;;;;;;;;;1026449;28;890;-37
2022/03/08 00:16:42;;;;;;;;;;;;;;;;;;1024641;28;1001;-38
2022/03/08 00:17:13;;;;;;;;;;;;;;;;;;1027307;28;792;-33
2022/03/08 00:17:43;;;;;;;;;;;;;;;;;;1031450;28;1972;-34
2022/03/08 00:18:14;;;;;;;;;;;;;;;;;;1031571;28;812;-33
2022/03/08 00:18:44;;;;;;;;;;;;;;;;;;1031529;28;1028;-34
2022/03/08 00:19:14;;;;;;;;;;;;;;;;;;1031414;28;974;-34
2022/03/08 00:19:45;;;;;;;;;;;;;;;;;;1031545;28;920;-34
2022/03/08 00:20:15;;;;;;;;;;;;;;;;;;1028976;28;1311;-33
2022/03/08 00:20:46;;;;;;;;;;;;;;;;;;1031306;28;977;-32
2022/03/08 00:21:17;;;;;;;;;;;;;;;;;;1031677;28;1355;-35
2022/03/08 00:21:48;;;;;;;;;;;;;;;;;;1032654;28;776;-32
2022/03/08 00:22:18;;;;;;;;;;;;;;;;;;1030853;28;1583;-32
2022/03/08 00:22:48;;;;;;;;;;;;;;;;;;1029808;28;2176;-35
2022/03/08 00:23:19;;;;;;;;;;;;;;;;;;1033162;28;985;-32
2022/03/08 00:23:49;;;;;;;;;;;;;;;;;;1034744;28;2217;-36
2022/03/08 00:24:19;;;;;;;;;;;;;;;;;;1032564;28;2184;-36
2022/03/08 00:24:50;;;;;;;;;;;;;;;;;;1032144;28;1085;-34
2022/03/08 00:25:20;;;;;;;;;;;;;;;;;;1031936;28;2044;-33
2022/03/08 00:25:50;;;;;;;;;;;;;;;;;;1028542;28;10687;-34
2022/03/08 00:26:21;;;;;;;;;;;;;;;;;;1034173;28;2001;-35
2022/03/08 00:26:52;;;;;;;;;;;;;;;;;;1031848;28;1125;-33
2022/03/08 00:27:22;;;;;;;;;;;;;;;;;;1032016;28;1045;-35
2022/03/08 00:27:53;;;;;;;;;;;;;;;;;;1033833;28;1999;-34
2022/03/08 00:28:23;;;;;;;;;;;;;;;;;;1035603;28;859;-34
2022/03/08 00:28:53;;;;;;;;;;;;;;;;;;1032579;28;1156;-33
2022/03/08 00:29:24;;;;;;;;;;;;;;;;;;1034144;28;2218;-34
2022/03/08 00:29:55;;;;;;;;;;;;;;;;;;1034898;28;1140;-36
2022/03/08 00:30:26;;;;;;;;;;;;;;;;;;1028436;28;2151;-31
2022/03/08 00:31:00;;;;;;;;;;;;;;;;;;1031009;28;1951;-34
2022/03/08 00:31:30;;;;;;;;;;;;;;;;;;1032589;28;1462;-34
2022/03/08 00:32:01;;;;;;;;;;;;;;;;;;1035044;28;850;-35
2022/03/08 00:32:31;;;;;;;;;;;;;;;;;;1035057;28;1340;-36
2022/03/08 00:33:02;;;;;;;;;;;;;;;;;;1035352;28;791;-33
2022/03/08 00:33:33;;;;;;;;;;;;;;;;;;1035594;28;981;-33
2022/03/08 00:34:04;;;;;;;;;;;;;;;;;;1035574;28;954;-33
2022/03/08 00:34:34;;;;;;;;;;;;;;;;;;1035516;28;945;-36
2022/03/08 00:35:05;;;;;;;;;;;;;;;;;;1035663;28;906;-34
2022/03/08 00:35:35;;;;;;;;;;;;;;;;;;1035158;28;874;-30
2022/03/08 00:36:07;;;;;;;;;;;;;;;;;;1035206;28;826;-31
2022/03/08 00:36:38;;;;;;;;;;;;;;;;;;1035173;28;860;-33
2022/03/08 00:37:09;;;;;;;;;;;;;;;;;;1035189;28;819;-33
2022/03/08 00:37:40;;;;;;;;;;;;;;;;;;1035450;28;1992;-34
2022/03/08 00:38:10;;;;;;;;;;;;;;;;;;1035492;28;866;-33
2022/03/08 00:38:40;;;;;;;;;;;;;;;;;;1035572;28;811;-35
2022/03/08 00:39:11;;;;;;;;;;;;;;;;;;1034997;28;894;-36
2022/03/08 00:39:41;;;;;;;;;;;;;;;;;;1035595;28;787;-34
2022/03/08 00:40:12;;;;;;;;;;;;;;;;;;1029812;28;1594;-34
2022/03/08 00:40:43;;;;;;;;;;;;;;;;;;1031144;28;846;-36
2022/03/08 00:41:13;;;;;;;;;;;;;;;;;;1031038;28;862;-37
2022/03/08 00:41:44;;;;;;;;;;;;;;;;;;1031449;28;867;-33
2022/03/08 00:42:14;;;;;;;;;;;;;;;;;;1030863;28;764;-32
2022/03/08 00:42:45;;;;;;;;;;;;;;;;;;1035205;28;819;-35
2022/03/08 00:43:16;;;;;;;;;;;;;;;;;;1035171;28;1180;-34
2022/03/08 00:43:47;;;;;;;;;;;;;;;;;;1031389;28;1295;-35
2022/03/08 00:44:17;;;;;;;;;;;;;;;;;;1035042;28;807;-32
2022/03/08 00:44:48;;;;;;;;;;;;;;;;;;1035290;28;621;-35
2022/03/08 00:45:18;;;;;;;;;;;;;;;;;;1030908;28;1756;-31
2022/03/08 00:45:49;;;;;;;;;;;;;;;;;;1027272;28;1125;-36
2022/03/08 00:46:20;;;;;;;;;;;;;;;;;;1030557;28;795;-36
2022/03/08 00:46:50;;;;;;;;;;;;;;;;;;1030935;28;767;-35
2022/03/08 00:47:20;;;;;;;;;;;;;;;;;;1035034;28;894;-33
2022/03/08 00:47:51;;;;;;;;;;;;;;;;;;1035365;28;783;-36
2022/03/08 00:48:21;;;;;;;;;;;;;;;;;;1035011;28;1355;-35
2022/03/08 00:48:52;;;;;;;;;;;;;;;;;;1035409;28;906;-33
2022/03/08 00:49:22;;;;;;;;;;;;;;;;;;1034992;28;1176;-36
2022/03/08 00:49:53;;;;;;;;;;;;;;;;;;1035192;28;921;-35
2022/03/08 00:50:24;;;;;;;;;;;;;;;;;;1034994;28;831;-31
2022/03/08 00:50:55;;;;;;;;;;;;;;;;;;1035046;28;850;-34
2022/03/08 00:51:25;;;;;;;;;;;;;;;;;;1034894;28;918;-35
2022/03/08 00:51:55;;;;;;;;;;;;;;;;;;1035026;28;970;-35
2022/03/08 00:52:26;;;;;;;;;;;;;;;;;;1030994;28;755;-36
2022/03/08 00:52:58;;;;;;;;;;;;;;;;;;1031157;28;862;-36
2022/03/08 00:53:30;;;;;;;;;;;;;;;;;;1035096;28;835;-36
2022/03/08 00:54:00;;;;;;;;;;;;;;;;;;1034565;28;973;-36
2022/03/08 00:54:30;;;;;;;;;;;;;;;;;;1035244;28;1059;-32
2022/03/08 00:55:01;;;;;;;;;;;;;;;;;;1035496;28;905;-34
2022/03/08 00:55:32;;;;;;;;;;;;;;;;;;1035173;28;796;-34
2022/03/08 00:56:03;;;;;;;;;;;;;;;;;;1035555;28;803;-34
2022/03/08 00:56:34;;;;;;;;;;;;;;;;;;1039344;28;791;-33
2022/03/08 00:57:05;;;;;;;;;;;;;;;;;;1039490;28;932;-35
2022/03/08 00:57:37;;;;;;;;;;;;;;;;;;1039107;28;1906;-35
2022/03/08 00:58:07;;;;;;;;;;;;;;;;;;1035036;28;1322;-35
2022/03/08 00:58:41;;;;;;;;;;;;;;;;;;1035058;28;811;-33
2022/03/08 00:59:11;;;;;;;;;;;;;;;;;;1034890;28;1024;-32
2022/03/08 00:59:43;;;;;;;;;;;;;;;;;;1035739;28;775;-35
2022/03/08 01:00:14;;;;;;;;;;;;;;;;;;1039425;28;944;-33
2022/03/08 01:00:44;;;;;;;;;;;;;;;;;;1039461;28;938;-32
2022/03/08 01:01:15;;;;;;;;;;;;;;;;;;1038485;28;838;-29
2022/03/08 01:01:45;;;;;;;;;;;;;;;;;;1039122;28;977;-34
2022/03/08 01:02:16;;;;;;;;;;;;;;;;;;1038950;28;774;-33
2022/03/08 01:02:46;;;;;;;;;;;;;;;;;;1039150;28;914;-35
2022/03/08 01:03:17;;;;;;;;;;;;;;;;;;1035002;28;854;-35
2022/03/08 01:03:47;;;;;;;;;;;;;;;;;;1039436;28;834;-35
2022/03/08 01:04:18;;;;;;;;;;;;;;;;;;1039505;28;873;-34
2022/03/08 01:04:48;;;;;;;;;;;;;;;;;;1039417;28;932;-35
2022/03/08 01:05:19;;;;;;;;;;;;;;;;;;1039370;28;889;-32
2022/03/08 01:05:49;;;;;;;;;;;;;;;;;;1039516;28;969;-33
2022/03/08 01:06:19;;;;;;;;;;;;;;;;;;1039383;28;938;-36
2022/03/08 01:06:50;;;;;;;;;;;;;;;;;;1039498;28;850;-34
2022/03/08 01:07:20;;;;;;;;;;;;;;;;;;1039362;28;855;-35
2022/03/08 01:07:52;;;;;;;;;;;;;;;;;;1039278;28;807;-33
2022/03/08 01:08:22;;;;;;;;;;;;;;;;;;1039109;28;982;-36
2022/03/08 01:08:52;;;;;;;;;;;;;;;;;;1038389;28;926;-33
2022/03/08 01:09:26;;;;;;;;;;;;;;;;;;1039136;28;850;-35
2022/03/08 01:09:56;;;;;;;;;;;;;;;;;;1034863;28;1774;-34
2022/03/08 01:10:27;;;;;;;;;;;;;;;;;;1035078;28;835;-36
2022/03/08 01:10:58;;;;;;;;;;;;;;;;;;1034960;28;1013;-34
2022/03/08 01:11:28;;;;;;;;;;;;;;;;;;1031856;28;1162;-34
2022/03/08 01:11:58;;;;;;;;;;;;;;;;;;1034976;28;1061;-34
2022/03/08 01:12:29;;;;;;;;;;;;;;;;;;1035025;28;879;-32
2022/03/08 01:13:01;;;;;;;;;;;;;;;;;;1035336;28;854;-36
2022/03/08 01:13:32;;;;;;;;;;;;;;;;;;1035284;28;942;-34
2022/03/08 01:14:03;;;;;;;;;;;;;;;;;;1035322;28;943;-34
2022/03/08 01:14:34;;;;;;;;;;;;;;;;;;1035233;28;859;-32
2022/03/08 01:15:07;;;;;;;;;;;;;;;;;;1035424;28;887;-36
2022/03/08 01:15:38;;;;;;;;;;;;;;;;;;1035097;28;883;-35
2022/03/08 01:16:08;;;;;;;;;;;;;;;;;;1034744;28;851;-34
2022/03/08 01:16:40;;;;;;;;;;;;;;;;;;1030670;28;1197;-36
2022/03/08 01:17:10;;;;;;;;;;;;;;;;;;1030966;28;842;-36
2022/03/08 01:17:41;;;;;;;;;;;;;;;;;;1030852;28;1918;-36
2022/03/08 01:18:13;;;;;;;;;;;;;;;;;;1031084;28;819;-33
2022/03/08 01:18:44;;;;;;;;;;;;;;;;;;1030900;28;1130;-36
2022/03/08 01:19:14;;;;;;;;;;;;;;;;;;1026859;28;903;-31
2022/03/08 01:19:45;;;;;;;;;;;;;;;;;;1026885;28;930;-36
2022/03/08 01:20:15;;;;;;;;;;;;;;;;;;1026859;28;903;-35
2022/03/08 01:20:46;;;;;;;;;;;;;;;;;;1030904;28;998;-33
2022/03/08 01:21:16;;;;;;;;;;;;;;;;;;1026918;28;843;-32
2022/03/08 01:21:46;;;;;;;;;;;;;;;;;;1027057;28;883;-34
2022/03/08 01:22:17;;;;;;;;;;;;;;;;;;1030761;28;970;-37
2022/03/08 01:22:47;;;;;;;;;;;;;;;;;;1030989;28;1005;-35
2022/03/08 01:23:20;;;;;;;;;;;;;;;;;;1034935;28;803;-34
2022/03/08 01:23:51;;;;;;;;;;;;;;;;;;1034976;28;912;-35
2022/03/08 01:24:21;;;;;;;;;;;;;;;;;;1035186;28;1021;-32
2022/03/08 01:24:53;;;;;;;;;;;;;;;;;;1035176;28;815;-36
2022/03/08 01:25:23;;;;;;;;;;;;;;;;;;1027854;28;1217;-35
2022/03/08 01:25:57;;;;;;;;;;;;;;;;;;1030867;28;826;-32
2022/03/08 01:26:27;;;;;;;;;;;;;;;;;;1030779;28;852;-36
2022/03/08 01:27:00;;;;;;;;;;;;;;;;;;1027199;28;958;-33
2022/03/08 01:27:30;;;;;;;;;;;;;;;;;;1030681;28;867;-36
2022/03/08 01:28:01;;;;;;;;;;;;;;;;;;1030640;28;851;-35
2022/03/08 01:28:32;;;;;;;;;;;;;;;;;;1026863;28;849;-36
2022/03/08 01:29:03;;;;;;;;;;;;;;;;;;1034937;28;878;-33
2022/03/08 01:29:34;;;;;;;;;;;;;;;;;;1030813;28;1295;-35
2022/03/08 01:30:06;;;;;;;;;;;;;;;;;;1030927;28;834;-36
2022/03/08 01:30:36;;;;;;;;;;;;;;;;;;1030897;28;843;-34
2022/03/08 01:31:07;;;;;;;;;;;;;;;;;;1030603;28;819;-34
2022/03/08 01:31:37;;;;;;;;;;;;;;;;;;1034962;28;1088;-33
2022/03/08 01:32:08;;;;;;;;;;;;;;;;;;1035082;28;835;-31
2022/03/08 01:32:38;;;;;;;;;;;;;;;;;;1035094;28;1635;-33
2022/03/08 01:33:09;;;;;;;;;;;;;;;;;;1035378;28;803;-34
2022/03/08 01:33:39;;;;;;;;;;;;;;;;;;1035313;28;831;-34
2022/03/08 01:34:10;;;;;;;;;;;;;;;;;;1035291;28;993;-36
2022/03/08 01:34:40;;;;;;;;;;;;;;;;;;1035236;28;815;-36
2022/03/08 01:35:11;;;;;;;;;;;;;;;;;;1035255;28;830;-35
2022/03/08 01:35:41;;;;;;;;;;;;;;;;;;1035935;28;974;-32
2022/03/08 01:36:12;;;;;;;;;;;;;;;;;;1036000;28;776;-35
2022/03/08 01:36:43;;;;;;;;;;;;;;;;;;1035993;28;823;-35
2022/03/08 01:37:14;;;;;;;;;;;;;;;;;;1036049;28;965;-35
2022/03/08 01:37:44;;;;;;;;;;;;;;;;;;1031401;28;1989;-31
2022/03/08 01:38:15;;;;;;;;;;;;;;;;;;1030850;28;1634;-31
2022/03/08 01:38:45;;;;;;;;;;;;;;;;;;1031627;28;823;-36
2022/03/08 01:39:16;;;;;;;;;;;;;;;;;;1027465;28;1331;-33
2022/03/08 01:39:46;;;;;;;;;;;;;;;;;;1031742;28;799;-34
2022/03/08 01:40:17;;;;;;;;;;;;;;;;;;1027512;28;922;-35
2022/03/08 01:40:47;;;;;;;;;;;;;;;;;;1027512;28;1240;-36
2022/03/08 01:41:18;;;;;;;;;;;;;;;;;;1031633;28;831;-34
2022/03/08 01:41:48;;;;;;;;;;;;;;;;;;1031662;28;828;-34
2022/03/08 01:42:21;;;;;;;;;;;;;;;;;;1035654;28;878;-33
2022/03/08 01:42:52;;;;;;;;;;;;;;;;;;1035961;28;874;-34
2022/03/08 01:43:22;;;;;;;;;;;;;;;;;;1035908;28;775;-36
2022/03/08 01:43:52;;;;;;;;;;;;;;;;;;1031552;28;1248;-33
2022/03/08 01:44:23;;;;;;;;;;;;;;;;;;1031586;28;950;-30
2022/03/08 01:44:53;;;;;;;;;;;;;;;;;;1027505;28;947;-36
2022/03/08 01:45:24;;;;;;;;;;;;;;;;;;1027581;28;1285;-34
2022/03/08 01:45:55;;;;;;;;;;;;;;;;;;995192;28;1031001;-36
2022/03/08 01:46:25;;;;;;;;;;;;;;;;;;1031894;28;836;-31
2022/03/08 01:46:55;;;;;;;;;;;;;;;;;;1027769;28;879;-33
2022/03/08 01:47:26;;;;;;;;;;;;;;;;;;1027743;28;1153;-36
2022/03/08 01:47:57;;;;;;;;;;;;;;;;;;1027588;28;1264;-35
2022/03/08 01:48:28;;;;;;;;;;;;;;;;;;1023669;29;1273;-36
2022/03/08 01:48:59;;;;;;;;;;;;;;;;;;1028022;28;1323;-35
2022/03/08 01:49:29;;;;;;;;;;;;;;;;;;1031709;28;811;-34
2022/03/08 01:50:00;;;;;;;;;;;;;;;;;;1027698;28;1213;-33
2022/03/08 01:50:30;;;;;;;;;;;;;;;;;;1023810;28;1302;-36
2022/03/08 01:51:00;;;;;;;;;;;;;;;;;;1027863;28;1030;-36
2022/03/08 01:51:32;;;;;;;;;;;;;;;;;;1027685;28;958;-35
2022/03/08 01:52:02;;;;;;;;;;;;;;;;;;1032189;28;768;-35
2022/03/08 01:52:33;;;;;;;;;;;;;;;;;;1035967;28;796;-35
2022/03/08 01:53:03;;;;;;;;;;;;;;;;;;1035778;28;1028;-30
2022/03/08 01:53:34;;;;;;;;;;;;;;;;;;1036059;28;878;-33
2022/03/08 01:54:05;;;;;;;;;;;;;;;;;;1036267;28;1105;-34
2022/03/08 01:54:36;;;;;;;;;;;;;;;;;;1036013;28;950;-34
2022/03/08 01:55:07;;;;;;;;;;;;;;;;;;1036299;28;795;-36
2022/03/08 01:55:37;;;;;;;;;;;;;;;;;;1036060;28;921;-36
2022/03/08 01:56:08;;;;;;;;;;;;;;;;;;1036406;28;779;-34
2022/03/08 01:56:39;;;;;;;;;;;;;;;;;;1036050;28;962;-33
2022/03/08 01:57:09;;;;;;;;;;;;;;;;;;1036362;28;875;-36
2022/03/08 01:57:39;;;;;;;;;;;;;;;;;;1035805;28;1902;-37
2022/03/08 01:58:10;;;;;;;;;;;;;;;;;;1036299;28;1049;-33
2022/03/08 01:58:40;;;;;;;;;;;;;;;;;;1036207;28;963;-30
2022/03/08 01:59:10;;;;;;;;;;;;;;;;;;1036073;28;855;-32
2022/03/08 01:59:41;;;;;;;;;;;;;;;;;;1031731;28;1166;-35
2022/03/08 02:00:13;;;;;;;;;;;;;;;;;;1031811;28;906;-34
2022/03/08 02:00:43;;;;;;;;;;;;;;;;;;1031235;28;954;-35
2022/03/08 02:01:14;;;;;;;;;;;;;;;;;;1032119;28;907;-31
2022/03/08 02:01:44;;;;;;;;;;;;;;;;;;1036180;28;878;-34
2022/03/08 02:02:15;;;;;;;;;;;;;;;;;;1036185;28;890;-34
2022/03/08 02:02:46;;;;;;;;;;;;;;;;;;1036208;28;898;-36
2022/03/08 02:03:16;;;;;;;;;;;;;;;;;;1036194;28;894;-35
2022/03/08 02:03:46;;;;;;;;;;;;;;;;;;1036153;28;1005;-34
2022/03/08 02:04:17;;;;;;;;;;;;;;;;;;1036143;28;914;-35
2022/03/08 02:04:47;;;;;;;;;;;;;;;;;;1036089;28;950;-36
2022/03/08 02:05:18;;;;;;;;;;;;;;;;;;1036305;28;918;-34
2022/03/08 02:05:48;;;;;;;;;;;;;;;;;;1036022;28;803;-33
2022/03/08 02:06:19;;;;;;;;;;;;;;;;;;1036368;28;958;-33
2022/03/08 02:06:49;;;;;;;;;;;;;;;;;;1036053;28;803;-35
2022/03/08 02:07:19;;;;;;;;;;;;;;;;;;1036342;28;914;-35
2022/03/08 02:07:50;;;;;;;;;;;;;;;;;;1035317;28;1045;-33
2022/03/08 02:08:21;;;;;;;;;;;;;;;;;;1036158;28;815;-35
2022/03/08 02:08:51;;;;;;;;;;;;;;;;;;1036052;28;1445;-35
2022/03/08 02:09:21;;;;;;;;;;;;;;;;;;1036332;28;787;-32
2022/03/08 02:09:52;;;;;;;;;;;;;;;;;;1036009;28;866;-33
2022/03/08 02:10:22;;;;;;;;;;;;;;;;;;1036233;28;792;-34
2022/03/08 02:10:53;;;;;;;;;;;;;;;;;;1036021;28;886;-29
2022/03/08 02:11:24;;;;;;;;;;;;;;;;;;1036275;28;824;-33
2022/03/08 02:11:54;;;;;;;;;;;;;;;;;;1033846;28;1146;-35
2022/03/08 02:12:25;;;;;;;;;;;;;;;;;;1032048;28;910;-34
2022/03/08 02:12:55;;;;;;;;;;;;;;;;;;1032146;28;863;-36
2022/03/08 02:13:26;;;;;;;;;;;;;;;;;;1032121;28;808;-33
2022/03/08 02:13:57;;;;;;;;;;;;;;;;;;1032164;28;835;-34
2022/03/08 02:14:27;;;;;;;;;;;;;;;;;;1032103;28;938;-34
2022/03/08 02:14:58;;;;;;;;;;;;;;;;;;1031966;28;859;-35
2022/03/08 02:15:28;;;;;;;;;;;;;;;;;;1031464;28;902;-33
2022/03/08 02:15:59;;;;;;;;;;;;;;;;;;1031978;28;839;-31
2022/03/08 02:16:29;;;;;;;;;;;;;;;;;;1032178;28;910;-33
2022/03/08 02:17:00;;;;;;;;;;;;;;;;;;1032019;28;875;-33
2022/03/08 02:17:30;;;;;;;;;;;;;;;;;;1032007;28;886;-32
2022/03/08 02:18:01;;;;;;;;;;;;;;;;;;1031992;28;1915;-35
2022/03/08 02:18:31;;;;;;;;;;;;;;;;;;1032135;28;882;-37
2022/03/08 02:19:02;;;;;;;;;;;;;;;;;;1031973;28;856;-31
2022/03/08 02:19:32;;;;;;;;;;;;;;;;;;1032164;28;962;-35
2022/03/08 02:20:03;;;;;;;;;;;;;;;;;;1031883;28;1615;-36
2022/03/08 02:20:33;;;;;;;;;;;;;;;;;;1032210;28;970;-34
2022/03/08 02:21:04;;;;;;;;;;;;;;;;;;1031904;28;1052;-32
2022/03/08 02:21:35;;;;;;;;;;;;;;;;;;1032136;28;891;-34
2022/03/08 02:22:05;;;;;;;;;;;;;;;;;;1032006;28;874;-35
2022/03/08 02:22:36;;;;;;;;;;;;;;;;;;1031515;28;847;-36
2022/03/08 02:23:06;;;;;;;;;;;;;;;;;;1031899;28;957;-35
2022/03/08 02:23:37;;;;;;;;;;;;;;;;;;1032234;28;929;-32
2022/03/08 02:24:07;;;;;;;;;;;;;;;;;;1031870;28;973;-34
2022/03/08 02:24:37;;;;;;;;;;;;;;;;;;1032125;28;1678;-34
2022/03/08 02:25:08;;;;;;;;;;;;;;;;;;1030822;28;1118;-32
2022/03/08 02:25:38;;;;;;;;;;;;;;;;;;1028073;28;945;-36
2022/03/08 02:26:09;;;;;;;;;;;;;;;;;;1027866;28;957;-33
2022/03/08 02:26:39;;;;;;;;;;;;;;;;;;1028069;28;977;-36
2022/03/08 02:27:10;;;;;;;;;;;;;;;;;;1027809;28;934;-36
2022/03/08 02:27:41;;;;;;;;;;;;;;;;;;1023687;29;931;-32
2022/03/08 02:28:12;;;;;;;;;;;;;;;;;;1023503;29;894;-34
2022/03/08 02:28:42;;;;;;;;;;;;;;;;;;1023759;28;929;-36
2022/03/08 02:29:14;;;;;;;;;;;;;;;;;;1023747;28;847;-34
2022/03/08 02:29:44;;;;;;;;;;;;;;;;;;1028060;28;804;-33
2022/03/08 02:30:16;;;;;;;;;;;;;;;;;;1027502;28;807;-35
2022/03/08 02:30:46;;;;;;;;;;;;;;;;;;1031891;28;799;-36
2022/03/08 02:31:17;;;;;;;;;;;;;;;;;;1032062;28;921;-35
2022/03/08 02:31:48;;;;;;;;;;;;;;;;;;1032036;28;1012;-36
2022/03/08 02:32:18;;;;;;;;;;;;;;;;;;1031933;28;942;-36
2022/03/08 02:32:48;;;;;;;;;;;;;;;;;;1032065;28;926;-35
2022/03/08 02:33:19;;;;;;;;;;;;;;;;;;1032018;28;938;-36
2022/03/08 02:33:49;;;;;;;;;;;;;;;;;;1031991;28;925;-34
2022/03/08 02:34:20;;;;;;;;;;;;;;;;;;1032006;28;858;-36
2022/03/08 02:34:50;;;;;;;;;;;;;;;;;;1032005;28;815;-36
2022/03/08 02:35:22;;;;;;;;;;;;;;;;;;1032047;28;1389;-36
2022/03/08 02:35:53;;;;;;;;;;;;;;;;;;1031931;28;858;-32
2022/03/08 02:36:23;;;;;;;;;;;;;;;;;;1031994;28;894;-31
2022/03/08 02:36:57;;;;;;;;;;;;;;;;;;1032136;28;842;-36
2022/03/08 02:37:35;;;;;;;;;;;;;;;;;;1031247;28;953;-34
2022/03/08 02:38:06;;;;;;;;;;;;;;;;;;1032038;28;886;-34
2022/03/08 02:38:37;;;;;;;;;;;;;;;;;;1032062;28;803;-36
2022/03/08 02:39:07;;;;;;;;;;;;;;;;;;1031962;28;882;-34
2022/03/08 02:39:38;;;;;;;;;;;;;;;;;;1032133;28;874;-32
2022/03/08 02:40:10;;;;;;;;;;;;;;;;;;1031753;28;874;-33
2022/03/08 02:40:41;;;;;;;;;;;;;;;;;;1032159;28;946;-32
2022/03/08 02:41:12;;;;;;;;;;;;;;;;;;1031783;28;1021;-35
2022/03/08 02:41:43;;;;;;;;;;;;;;;;;;1032087;28;953;-34
2022/03/08 02:42:13;;;;;;;;;;;;;;;;;;1032015;28;878;-36
2022/03/08 02:42:44;;;;;;;;;;;;;;;;;;1031974;28;803;-34
2022/03/08 02:43:14;;;;;;;;;;;;;;;;;;1031986;28;874;-35
2022/03/08 02:43:44;;;;;;;;;;;;;;;;;;1031903;28;1750;-35
2022/03/08 02:44:15;;;;;;;;;;;;;;;;;;1031832;28;906;-33
2022/03/08 02:44:45;;;;;;;;;;;;;;;;;;1031660;28;867;-35
2022/03/08 02:45:16;;;;;;;;;;;;;;;;;;1031838;28;819;-33
2022/03/08 02:45:47;;;;;;;;;;;;;;;;;;1032030;28;898;-36
2022/03/08 02:46:18;;;;;;;;;;;;;;;;;;1035233;28;1376;-36
2022/03/08 02:46:48;;;;;;;;;;;;;;;;;;1036008;28;887;-35
2022/03/08 02:47:18;;;;;;;;;;;;;;;;;;1036093;28;1433;-32
2022/03/08 02:47:49;;;;;;;;;;;;;;;;;;1035729;28;1269;-33
2022/03/08 02:48:20;;;;;;;;;;;;;;;;;;1035994;28;875;-32
2022/03/08 02:48:50;;;;;;;;;;;;;;;;;;1036041;28;949;-30
2022/03/08 02:49:20;;;;;;;;;;;;;;;;;;1035942;28;815;-35
2022/03/08 02:49:50;;;;;;;;;;;;;;;;;;1036026;28;934;-34
2022/03/08 02:50:21;;;;;;;;;;;;;;;;;;1035860;28;926;-34
2022/03/08 02:50:51;;;;;;;;;;;;;;;;;;1036032;28;858;-35
2022/03/08 02:51:22;;;;;;;;;;;;;;;;;;1036062;28;838;-34
2022/03/08 02:51:53;;;;;;;;;;;;;;;;;;1035999;28;794;-37
2022/03/08 02:52:23;;;;;;;;;;;;;;;;;;1035258;28;890;-35
2022/03/08 02:52:54;;;;;;;;;;;;;;;;;;1036155;28;834;-36
2022/03/08 02:53:25;;;;;;;;;;;;;;;;;;1035942;28;827;-34
2022/03/08 02:53:55;;;;;;;;;;;;;;;;;;1036104;28;954;-31
2022/03/08 02:54:25;;;;;;;;;;;;;;;;;;1035772;28;879;-37
2022/03/08 02:54:56;;;;;;;;;;;;;;;;;;1036156;28;893;-36
2022/03/08 02:55:27;;;;;;;;;;;;;;;;;;1035978;28;882;-36
2022/03/08 02:55:57;;;;;;;;;;;;;;;;;;1036034;28;894;-31
2022/03/08 02:56:28;;;;;;;;;;;;;;;;;;1035891;28;934;-34
2022/03/08 02:56:58;;;;;;;;;;;;;;;;;;1036062;28;826;-34
2022/03/08 02:57:28;;;;;;;;;;;;;;;;;;1035847;28;843;-34
2022/03/08 02:57:59;;;;;;;;;;;;;;;;;;1035834;28;1993;-34
2022/03/08 02:58:30;;;;;;;;;;;;;;;;;;1035786;28;969;-35
2022/03/08 02:59:00;;;;;;;;;;;;;;;;;;1036058;28;941;-36
2022/03/08 02:59:31;;;;;;;;;;;;;;;;;;1035749;28;1493;-31
2022/03/08 03:00:03;;;;;;;;;;;;;;;;;;1035582;28;910;-34
2022/03/08 03:00:34;;;;;;;;;;;;;;;;;;1035994;28;787;-32
2022/03/08 03:01:04;;;;;;;;;;;;;;;;;;1035782;28;1688;-35
2022/03/08 03:01:34;;;;;;;;;;;;;;;;;;1036038;28;895;-33
2022/03/08 03:02:05;;;;;;;;;;;;;;;;;;1035947;28;882;-33
2022/03/08 03:02:35;;;;;;;;;;;;;;;;;;1035850;28;958;-36
2022/03/08 03:03:07;;;;;;;;;;;;;;;;;;1035868;28;1025;-34
2022/03/08 03:03:37;;;;;;;;;;;;;;;;;;1035973;28;831;-36
2022/03/08 03:04:07;;;;;;;;;;;;;;;;;;1035837;28;957;-32
2022/03/08 03:04:38;;;;;;;;;;;;;;;;;;1036072;28;889;-34
2022/03/08 03:05:08;;;;;;;;;;;;;;;;;;1035788;28;852;-34
2022/03/08 03:05:39;;;;;;;;;;;;;;;;;;1036051;28;835;-35
2022/03/08 03:06:09;;;;;;;;;;;;;;;;;;1036028;28;867;-34
2022/03/08 03:06:39;;;;;;;;;;;;;;;;;;1035955;28;1000;-34
2022/03/08 03:07:10;;;;;;;;;;;;;;;;;;1035329;28;874;-37
2022/03/08 03:07:41;;;;;;;;;;;;;;;;;;1035775;28;898;-35
2022/03/08 03:08:12;;;;;;;;;;;;;;;;;;1035977;28;950;-36
2022/03/08 03:08:43;;;;;;;;;;;;;;;;;;1036051;28;768;-32
2022/03/08 03:09:13;;;;;;;;;;;;;;;;;;1035779;28;922;-33
2022/03/08 03:09:44;;;;;;;;;;;;;;;;;;1035978;28;858;-33
2022/03/08 03:10:18;;;;;;;;;;;;;;;;;;1035932;28;922;-35
2022/03/08 03:10:48;;;;;;;;;;;;;;;;;;1035823;28;855;-35
2022/03/08 03:11:18;;;;;;;;;;;;;;;;;;1035972;28;791;-37
2022/03/08 03:11:49;;;;;;;;;;;;;;;;;;1035818;28;902;-34
2022/03/08 03:12:19;;;;;;;;;;;;;;;;;;1035971;28;999;-36
2022/03/08 03:12:50;;;;;;;;;;;;;;;;;;1035845;28;1058;-37
2022/03/08 03:13:21;;;;;;;;;;;;;;;;;;1035873;28;844;-34
2022/03/08 03:13:51;;;;;;;;;;;;;;;;;;1035854;28;878;-33
2022/03/08 03:14:21;;;;;;;;;;;;;;;;;;1035528;28;918;-35
2022/03/08 03:14:52;;;;;;;;;;;;;;;;;;1035628;28;923;-36
2022/03/08 03:15:23;;;;;;;;;;;;;;;;;;1035931;28;619;-35
2022/03/08 03:15:53;;;;;;;;;;;;;;;;;;1035888;28;815;-35
2022/03/08 03:16:23;;;;;;;;;;;;;;;;;;1035811;28;989;-34
2022/03/08 03:16:54;;;;;;;;;;;;;;;;;;1036048;28;895;-35
2022/03/08 03:17:24;;;;;;;;;;;;;;;;;;1035796;28;787;-31
2022/03/08 03:17:54;;;;;;;;;;;;;;;;;;1035759;28;1971;-32
2022/03/08 03:18:25;;;;;;;;;;;;;;;;;;1035839;28;969;-35
2022/03/08 03:18:55;;;;;;;;;;;;;;;;;;1035987;28;811;-32
2022/03/08 03:19:26;;;;;;;;;;;;;;;;;;1035872;28;954;-33
2022/03/08 03:19:56;;;;;;;;;;;;;;;;;;1035815;28;1456;-35
2022/03/08 03:20:27;;;;;;;;;;;;;;;;;;1035905;28;886;-35
2022/03/08 03:20:57;;;;;;;;;;;;;;;;;;1035915;28;883;-36
2022/03/08 03:21:28;;;;;;;;;;;;;;;;;;1035900;28;879;-34
2022/03/08 03:21:58;;;;;;;;;;;;;;;;;;1035254;28;926;-34
2022/03/08 03:22:28;;;;;;;;;;;;;;;;;;1035694;28;950;-36
2022/03/08 03:22:59;;;;;;;;;;;;;;;;;;1035996;28;1616;-35
2022/03/08 03:23:29;;;;;;;;;;;;;;;;;;1035866;28;870;-36
2022/03/08 03:24:00;;;;;;;;;;;;;;;;;;1035773;28;942;-36
2022/03/08 03:24:30;;;;;;;;;;;;;;;;;;1035832;28;823;-36
2022/03/08 03:25:00;;;;;;;;;;;;;;;;;;1031484;28;927;-34
2022/03/08 03:25:31;;;;;;;;;;;;;;;;;;1035373;28;874;-37
2022/03/08 03:26:01;;;;;;;;;;;;;;;;;;1035625;28;981;-33
2022/03/08 03:26:32;;;;;;;;;;;;;;;;;;1035361;28;1639;-37
2022/03/08 03:27:02;;;;;;;;;;;;;;;;;;1035887;28;942;-35
2022/03/08 03:27:33;;;;;;;;;;;;;;;;;;1035655;28;922;-37
2022/03/08 03:28:03;;;;;;;;;;;;;;;;;;1035773;28;1388;-36
2022/03/08 03:28:34;;;;;;;;;;;;;;;;;;1035911;28;926;-35
2022/03/08 03:29:04;;;;;;;;;;;;;;;;;;1035782;28;890;-35
2022/03/08 03:29:34;;;;;;;;;;;;;;;;;;1035324;28;823;-34
2022/03/08 03:30:06;;;;;;;;;;;;;;;;;;1035739;28;878;-34
2022/03/08 03:30:37;;;;;;;;;;;;;;;;;;1035853;28;983;-35
2022/03/08 03:31:07;;;;;;;;;;;;;;;;;;1035909;28;816;-34
2022/03/08 03:31:37;;;;;;;;;;;;;;;;;;1035814;28;840;-32
2022/03/08 03:32:08;;;;;;;;;;;;;;;;;;1035852;28;878;-35
2022/03/08 03:32:39;;;;;;;;;;;;;;;;;;1035839;28;953;-35
2022/03/08 03:33:09;;;;;;;;;;;;;;;;;;1035707;28;953;-36
2022/03/08 03:33:39;;;;;;;;;;;;;;;;;;1035916;28;929;-34
2022/03/08 03:34:10;;;;;;;;;;;;;;;;;;1035668;28;862;-35
2022/03/08 03:34:40;;;;;;;;;;;;;;;;;;1035830;28;879;-36
2022/03/08 03:35:11;;;;;;;;;;;;;;;;;;1035813;28;970;-33
2022/03/08 03:35:41;;;;;;;;;;;;;;;;;;1035763;28;779;-34